SKPC/PCR METAR and TAF weather

Enter ICAO airport designator
Station Type Date Time Source
SKPC METAR 2019/06/27 02:00 UTC NOAA

SKPC 270200Z 00000KT 9999 FEW020 28/24 A2983


Station Type Date Time Source
SKPC Decoded METAR 2019/06/27 02:00 UTC NOAA

Puerto Carreno / A. Guauquea, Colombia (SKPC) 06-10N 067-30W
Jun 26, 2019 - 10:00 PM EDT / 2019.06.27 0200 UTC
Wind: Calm:0
Visibility: greater than 7 mile(s):0
Sky conditions: mostly clear
Temperature: 82 F (28 C)
Dew Point: 75 F (24 C)
Relative Humidity: 78%
Pressure (altimeter): 29.83 in. Hg (1010 hPa)
ob: SKPC 270200Z 00000KT 9999 FEW020 28/24 A2983
cycle: 2

Station Type Date Time Source
SKPC TAF UTC NOAA

Error!

Example: see airport list